createdAt,value
2022-08-11T00:02:07.141Z,79.40
2022-08-11T00:04:47.885Z,80.50
2022-08-11T00:07:20.024Z,81.00
2022-08-11T00:09:52.676Z,81.60
2022-08-11T00:12:24.837Z,81.80
2022-08-11T00:14:59.269Z,82.40
2022-08-11T00:17:34.742Z,82.90
2022-08-11T00:20:16.678Z,83.00
2022-08-11T00:22:50.017Z,82.90
2022-08-11T00:25:22.067Z,82.50
2022-08-11T00:27:53.881Z,82.30
2022-08-11T00:30:25.729Z,83.00
2022-08-11T00:32:58.917Z,83.00
2022-08-11T00:35:51.905Z,82.60
2022-08-11T00:38:26.410Z,82.70
2022-08-11T00:41:40.980Z,82.60
2022-08-11T00:44:46.915Z,82.80
2022-08-11T00:47:34.518Z,83.10
2022-08-11T00:50:25.473Z,82.80
2022-08-11T00:52:57.463Z,81.90
2022-08-11T00:56:05.688Z,81.40
2022-08-11T00:59:26.456Z,82.70
2022-08-11T01:02:39.409Z,81.40
2022-08-11T01:05:34.387Z,80.80
2022-08-11T01:08:25.440Z,80.40
2022-08-11T01:11:55.618Z,80.40
2022-08-11T01:15:04.741Z,80.20
2022-08-11T01:18:01.067Z,81.20
2022-08-11T01:20:50.627Z,81.00
2022-08-11T01:23:47.630Z,80.80
2022-08-11T01:27:18.822Z,80.40
2022-08-11T01:29:54.579Z,79.80
2022-08-11T01:33:03.900Z,80.60
2022-08-11T01:36:03.677Z,80.30
2022-08-11T01:38:44.063Z,81.70
2022-08-11T01:42:09.312Z,81.00
2022-08-11T01:44:58.943Z,80.30
2022-08-11T01:47:52.876Z,80.70
2022-08-11T01:50:31.315Z,82.60
2022-08-11T01:53:35.579Z,83.30
2022-08-11T01:56:43.868Z,83.80
2022-08-11T01:59:28.520Z,84.90
2022-08-11T02:02:21.670Z,85.80
2022-08-11T02:04:53.523Z,86.10
2022-08-11T02:07:52.265Z,87.00
2022-08-11T02:11:08.248Z,87.60
2022-08-11T02:13:48.809Z,88.00
2022-08-11T02:16:55.313Z,88.30
2022-08-11T02:20:18.141Z,88.70
2022-08-11T02:24:04.489Z,89.00
2022-08-11T02:26:15.759Z,89.20
2022-08-11T02:28:54.936Z,89.30
2022-08-11T02:32:25.201Z,89.30
2022-08-11T02:35:11.838Z,90.00
2022-08-11T02:38:01.216Z,90.30
2022-08-11T02:40:45.855Z,90.70
2022-08-11T02:43:36.903Z,90.70
2022-08-11T02:46:24.699Z,90.70
2022-08-11T02:49:32.013Z,90.90
2022-08-11T02:52:14.227Z,91.00
2022-08-11T02:55:03.286Z,90.90
2022-08-11T02:57:43.233Z,91.00
2022-08-11T03:00:17.701Z,91.10
2022-08-11T03:02:49.419Z,91.10
2022-08-11T03:05:39.667Z,90.90
2022-08-11T03:08:32.057Z,90.90
2022-08-11T03:11:25.980Z,91.20
2022-08-11T03:14:16.360Z,91.60
2022-08-11T03:16:51.177Z,91.60
2022-08-11T03:20:00.071Z,91.80
2022-08-11T03:22:49.805Z,92.30
2022-08-11T03:25:34.702Z,92.60
2022-08-11T03:28:28.732Z,92.80
2022-08-11T03:31:19.167Z,93.30
2022-08-11T03:34:08.029Z,94.00
2022-08-11T03:37:43.845Z,94.30
2022-08-11T03:40:38.550Z,94.70
2022-08-11T03:43:39.128Z,95.00
2022-08-11T03:46:35.841Z,94.60
2022-08-11T03:49:26.129Z,94.10
2022-08-11T03:52:15.845Z,94.10
2022-08-11T03:55:13.599Z,94.00
2022-08-11T03:57:56.659Z,93.80
2022-08-11T04:01:06.090Z,93.90
2022-08-11T04:03:57.646Z,93.90
2022-08-11T04:06:53.893Z,93.70
2022-08-11T04:09:46.885Z,93.70
2022-08-11T04:13:16.879Z,94.00
2022-08-11T04:16:10.946Z,93.70
2022-08-11T04:19:06.019Z,92.80
2022-08-11T04:22:15.335Z,92.60
2022-08-11T04:24:59.203Z,92.70
2022-08-11T04:27:56.200Z,92.70
2022-08-11T04:31:10.178Z,92.60
2022-08-11T04:33:42.025Z,92.60
2022-08-11T04:37:28.584Z,92.70
2022-08-11T04:40:23.967Z,93.00
2022-08-11T04:43:33.001Z,93.20
2022-08-11T04:46:23.275Z,93.20
2022-08-11T04:49:33.668Z,92.70
2022-08-11T04:52:35.425Z,92.30
2022-08-11T04:55:40.319Z,90.90
2022-08-11T04:58:55.949Z,83.50
2022-08-11T05:01:43.002Z,77.60
2022-08-11T05:05:25.676Z,72.70
2022-08-11T05:08:00.210Z,70.30
2022-08-11T05:11:52.489Z,70.10
2022-08-11T05:14:59.631Z,69.30
2022-08-11T05:18:19.226Z,67.00
2022-08-11T05:21:13.847Z,66.20
2022-08-11T05:24:16.548Z,66.50
2022-08-11T05:27:13.647Z,66.10
2022-08-11T05:30:19.578Z,67.30
2022-08-11T05:33:25.325Z,67.20
2022-08-11T05:36:12.557Z,66.70
2022-08-11T05:39:18.361Z,65.50
2022-08-11T05:42:09.820Z,64.00
2022-08-11T05:45:58.171Z,62.20
2022-08-11T05:48:50.823Z,61.80
2022-08-11T05:51:55.111Z,62.30
2022-08-11T05:54:47.911Z,61.40
2022-08-11T05:57:49.646Z,61.60
2022-08-11T06:00:14.885Z,61.40
2022-08-11T06:02:55.205Z,62.00
2022-08-11T06:05:38.204Z,62.30
2022-08-11T06:08:15.533Z,62.90
2022-08-11T06:10:47.645Z,63.40
2022-08-11T06:13:23.628Z,64.30
2022-08-11T06:15:57.153Z,64.70
2022-08-11T06:18:30.724Z,65.00
2022-08-11T06:21:09.120Z,64.70
2022-08-11T06:23:42.294Z,62.50
2022-08-11T06:26:14.872Z,61.90
2022-08-11T06:28:48.237Z,60.40
2022-08-11T06:31:24.180Z,59.70
2022-08-11T06:34:29.063Z,59.70
2022-08-11T06:37:35.820Z,58.80
2022-08-11T06:40:30.042Z,59.30
2022-08-11T06:43:19.790Z,58.70
2022-08-11T06:46:05.877Z,58.60
2022-08-11T06:48:40.335Z,59.10
2022-08-11T06:51:12.556Z,59.20
2022-08-11T06:54:04.302Z,59.00
2022-08-11T06:57:26.403Z,59.40
2022-08-11T07:00:08.937Z,58.10
2022-08-11T07:03:08.577Z,57.50
2022-08-11T07:05:58.344Z,57.30
2022-08-11T07:08:57.940Z,57.90
2022-08-11T07:12:08.347Z,57.60
2022-08-11T07:15:11.537Z,57.20
2022-08-11T07:18:12.474Z,56.30
2022-08-11T07:21:03.822Z,56.10
2022-08-11T07:23:56.066Z,56.20
2022-08-11T07:26:47.073Z,57.30
2022-08-11T07:29:21.333Z,58.80
2022-08-11T07:31:54.155Z,57.20
2022-08-11T07:34:36.521Z,56.30
2022-08-11T07:37:17.856Z,56.40
2022-08-11T07:39:50.374Z,55.10
2022-08-11T07:42:27.137Z,55.70
2022-08-11T07:45:18.872Z,54.70
2022-08-11T07:48:11.852Z,53.90
2022-08-11T07:51:03.137Z,52.90
2022-08-11T07:53:58.022Z,53.40
2022-08-11T07:56:54.121Z,53.10
2022-08-11T08:00:02.723Z,52.60
2022-08-11T08:03:03.266Z,52.70
2022-08-11T08:05:54.184Z,53.30
2022-08-11T08:08:45.781Z,52.80
2022-08-11T08:11:39.251Z,52.10
2022-08-11T08:14:30.569Z,52.30
2022-08-11T08:17:21.435Z,51.90
2022-08-11T08:19:53.482Z,53.40
2022-08-11T08:22:37.722Z,51.70
2022-08-11T08:25:11.350Z,51.20
2022-08-11T08:27:45.651Z,51.10
2022-08-11T08:30:36.260Z,51.20
2022-08-11T08:33:08.656Z,51.40
2022-08-11T08:35:55.695Z,50.50
2022-08-11T08:38:29.149Z,50.90
2022-08-11T08:41:01.745Z,49.80
2022-08-11T08:43:47.549Z,49.90
2022-08-11T08:46:27.980Z,49.50
2022-08-11T08:49:02.758Z,49.00
2022-08-11T08:52:02.411Z,47.80
2022-08-11T08:54:42.041Z,48.10
2022-08-11T08:57:15.268Z,48.00
2022-08-11T08:59:51.547Z,47.40
2022-08-11T09:02:34.200Z,47.50
2022-08-11T09:05:09.035Z,47.60
2022-08-11T09:07:41.688Z,48.10
2022-08-11T09:10:17.334Z,48.50
2022-08-11T09:12:50.730Z,48.10
2022-08-11T09:15:24.288Z,48.70
2022-08-11T09:18:03.618Z,48.50
2022-08-11T09:20:38.447Z,47.30
2022-08-11T09:26:40.949Z,47.80
2022-08-11T09:29:13.502Z,47.80
2022-08-11T09:31:46.573Z,46.20
2022-08-11T09:34:19.230Z,46.40
2022-08-11T09:37:09.703Z,47.30
2022-08-11T09:40:00.817Z,45.80
2022-08-11T09:42:51.423Z,46.90
2022-08-11T09:45:23.439Z,47.30
2022-08-11T09:47:57.098Z,47.30
2022-08-11T09:50:29.072Z,46.80
2022-08-11T09:53:36.355Z,46.70
2022-08-11T09:55:58.610Z,46.50
2022-08-11T09:58:42.454Z,46.80
2022-08-11T10:01:27.415Z,46.00
2022-08-11T10:04:34.841Z,46.90
2022-08-11T10:07:10.643Z,46.30
2022-08-11T10:09:56.979Z,46.80
2022-08-11T10:12:38.160Z,46.10
2022-08-11T10:15:30.852Z,45.90
2022-08-11T10:18:29.746Z,46.30
2022-08-11T10:21:07.089Z,46.20
2022-08-11T10:24:00.942Z,45.70
2022-08-11T10:26:54.524Z,45.60
2022-08-11T10:30:05.597Z,45.30
2022-08-11T10:33:00.251Z,45.40
2022-08-11T10:35:33.102Z,46.60
2022-08-11T10:38:06.086Z,45.70
2022-08-11T10:40:46.076Z,46.10
2022-08-11T10:44:01.761Z,45.70
2022-08-11T10:46:30.368Z,45.40
2022-08-11T10:49:02.692Z,45.00
2022-08-11T10:51:54.093Z,45.10
2022-08-11T10:54:51.692Z,44.40
2022-08-11T10:57:42.206Z,44.80
2022-08-11T11:00:36.142Z,44.70
2022-08-11T11:03:23.785Z,43.50
2022-08-11T11:06:29.083Z,43.50
2022-08-11T11:09:12.835Z,43.50
2022-08-11T11:12:17.276Z,44.00
2022-08-11T11:15:16.117Z,43.10
2022-08-11T11:18:04.683Z,43.00
2022-08-11T11:20:47.132Z,42.30
2022-08-11T11:23:27.858Z,42.50
2022-08-11T11:26:15.496Z,42.30
2022-08-11T11:29:25.634Z,42.90
2022-08-11T11:32:35.132Z,41.80
2022-08-11T11:35:15.587Z,41.90
2022-08-11T11:38:00.061Z,42.10
2022-08-11T11:40:38.862Z,40.20
2022-08-11T11:43:11.286Z,40.40
2022-08-11T11:45:43.732Z,40.50
2022-08-11T11:48:15.649Z,40.60
2022-08-11T11:50:49.143Z,41.00
2022-08-11T11:53:21.653Z,40.30
2022-08-11T11:55:53.670Z,40.60
2022-08-11T11:58:45.535Z,40.60
2022-08-11T12:01:19.793Z,40.30
2022-08-11T12:03:53.818Z,40.00
2022-08-11T12:06:27.666Z,39.90
2022-08-11T12:09:00.436Z,40.10
2022-08-11T12:11:51.532Z,39.90
2022-08-11T12:14:25.697Z,39.90
2022-08-11T12:16:58.859Z,39.10
2022-08-11T12:19:35.544Z,39.20
2022-08-11T12:22:26.510Z,38.70
2022-08-11T12:25:17.078Z,38.90
2022-08-11T12:27:49.221Z,39.00
2022-08-11T12:30:21.959Z,38.60
2022-08-11T12:32:54.223Z,38.30
2022-08-11T12:35:26.704Z,38.00
2022-08-11T12:38:09.954Z,37.50
2022-08-11T12:41:18.655Z,38.00
2022-08-11T12:44:10.168Z,38.20
2022-08-11T12:46:45.813Z,38.00
2022-08-11T12:49:44.744Z,38.90
2022-08-11T12:52:27.513Z,37.20
2022-08-11T12:55:14.088Z,37.20
2022-08-11T12:58:06.024Z,37.40
2022-08-11T13:00:56.888Z,37.40
2022-08-11T13:03:52.288Z,37.30
2022-08-11T13:06:30.223Z,37.40
2022-08-11T13:09:02.072Z,37.50
2022-08-11T13:11:55.487Z,37.60
2022-08-11T13:14:33.081Z,37.70
2022-08-11T13:17:40.216Z,37.00
2022-08-11T13:20:21.373Z,36.50
2022-08-11T13:22:56.845Z,35.40
2022-08-11T13:25:32.293Z,36.40
2022-08-11T13:28:05.533Z,36.30
2022-08-11T13:30:55.917Z,36.40
2022-08-11T13:33:28.546Z,36.70
2022-08-11T13:36:01.436Z,36.30
2022-08-11T13:38:34.971Z,36.30
2022-08-11T13:41:27.084Z,35.70
2022-08-11T13:43:59.376Z,34.90
2022-08-11T13:46:34.756Z,35.50
2022-08-11T13:49:11.605Z,35.80
2022-08-11T13:51:44.414Z,36.00
2022-08-11T13:54:22.638Z,36.00
2022-08-11T13:56:57.119Z,36.00
2022-08-11T13:59:30.819Z,36.40
2022-08-11T14:02:28.729Z,36.20
2022-08-11T14:05:05.259Z,36.00
2022-08-11T14:07:57.275Z,34.90
2022-08-11T14:10:32.914Z,34.80
2022-08-11T14:13:42.384Z,35.00
2022-08-11T14:16:40.562Z,35.10
2022-08-11T14:19:14.121Z,35.20
2022-08-11T14:22:07.859Z,34.80
2022-08-11T14:24:42.516Z,34.00
2022-08-11T14:28:32.462Z,34.30
2022-08-11T14:30:28.382Z,33.70
2022-08-11T14:33:00.319Z,32.30
2022-08-11T14:35:50.209Z,33.50
2022-08-11T14:38:22.424Z,34.20
2022-08-11T14:41:13.169Z,33.90
2022-08-11T14:44:13.949Z,33.70
2022-08-11T14:47:05.644Z,34.70
2022-08-11T14:50:09.767Z,34.20
2022-08-11T14:52:49.605Z,35.50
2022-08-11T14:55:42.725Z,35.70
2022-08-11T14:58:19.753Z,36.10
2022-08-11T15:00:59.990Z,36.20
2022-08-11T15:03:33.716Z,35.90
2022-08-11T15:06:06.062Z,36.30
2022-08-11T15:08:54.710Z,35.90
2022-08-11T15:11:49.186Z,36.10
2022-08-11T15:14:39.602Z,36.40
2022-08-11T15:17:14.936Z,36.30
2022-08-11T15:20:06.462Z,36.00
2022-08-11T15:22:57.272Z,35.70
2022-08-11T15:25:30.811Z,35.40
2022-08-11T15:28:23.484Z,35.90
2022-08-11T15:31:16.352Z,36.60
2022-08-11T15:34:11.126Z,36.90
2022-08-11T15:37:05.737Z,37.80
2022-08-11T15:40:32.823Z,37.20
2022-08-11T15:43:32.508Z,37.30
2022-08-11T15:46:17.767Z,37.40
2022-08-11T15:48:59.893Z,37.10
2022-08-11T15:51:43.847Z,37.40
2022-08-11T15:54:23.096Z,37.80
2022-08-11T15:56:57.500Z,38.10
2022-08-11T15:59:52.576Z,38.20
2022-08-11T16:02:45.555Z,38.40
2022-08-11T16:05:45.265Z,38.70
2022-08-11T16:08:11.560Z,38.80
2022-08-11T16:10:46.608Z,38.80
2022-08-11T16:13:22.477Z,39.40
2022-08-11T16:16:15.207Z,39.60
2022-08-11T16:18:58.220Z,39.90
2022-08-11T16:21:36.174Z,39.40
2022-08-11T16:27:05.337Z,39.40
2022-08-11T16:27:13.605Z,39.30
2022-08-11T16:29:48.605Z,39.10
2022-08-11T16:32:23.666Z,39.00
2022-08-11T16:35:20.203Z,39.40
2022-08-11T16:38:12.235Z,38.90
2022-08-11T16:40:44.879Z,38.80
2022-08-11T16:43:37.491Z,38.70
2022-08-11T16:46:18.081Z,38.70
2022-08-11T16:48:53.483Z,38.60
2022-08-11T16:51:25.458Z,38.50
2022-08-11T16:54:05.097Z,38.70
2022-08-11T16:56:45.341Z,39.20
2022-08-11T16:59:26.332Z,39.40
2022-08-11T17:02:06.883Z,39.30
2022-08-11T17:05:03.835Z,39.90
2022-08-11T17:07:58.198Z,40.10
2022-08-11T17:11:03.803Z,40.40
2022-08-11T17:13:42.457Z,40.60
2022-08-11T17:16:20.830Z,40.70
2022-08-11T17:19:05.472Z,41.20
2022-08-11T17:21:59.293Z,41.40
2022-08-11T17:24:34.830Z,42.10
2022-08-11T17:27:08.819Z,43.00
2022-08-11T17:29:57.975Z,43.20
2022-08-11T17:33:01.738Z,43.70
2022-08-11T17:35:40.567Z,44.00
2022-08-11T17:38:20.562Z,44.40
2022-08-11T17:41:18.431Z,44.60
2022-08-11T17:44:14.373Z,44.80
2022-08-11T17:47:06.616Z,45.10
2022-08-11T17:49:39.803Z,45.10
2022-08-11T17:52:35.248Z,45.30
2022-08-11T17:55:51.735Z,45.70
2022-08-11T17:58:39.371Z,45.80
2022-08-11T18:01:13.015Z,45.90
2022-08-11T18:03:53.226Z,46.70
2022-08-11T18:06:34.237Z,46.10
2022-08-11T18:09:34.228Z,46.10
2022-08-11T18:12:26.201Z,46.40
2022-08-11T18:15:17.444Z,46.30
2022-08-11T18:18:09.708Z,46.40
2022-08-11T18:21:00.381Z,46.70
2022-08-11T18:23:50.805Z,46.80
2022-08-11T18:26:43.571Z,47.00
2022-08-11T18:29:42.055Z,47.30
2022-08-11T18:32:49.536Z,47.80
2022-08-11T18:35:41.490Z,47.90
2022-08-11T18:38:34.686Z,48.30
2022-08-11T18:41:28.811Z,48.60
2022-08-11T18:44:23.444Z,49.00
2022-08-11T18:47:15.370Z,49.30
2022-08-11T18:50:12.056Z,49.60
2022-08-11T18:53:10.376Z,49.90
2022-08-11T18:56:03.594Z,50.30
2022-08-11T18:58:55.389Z,50.40
2022-08-11T19:01:47.460Z,50.90
2022-08-11T19:04:39.843Z,51.50
2022-08-11T19:07:32.583Z,50.90
2022-08-11T19:10:24.474Z,51.10
2022-08-11T19:13:17.036Z,51.20
2022-08-11T19:16:08.764Z,51.20
2022-08-11T19:19:00.532Z,51.40
2022-08-11T19:21:52.441Z,51.80
2022-08-11T19:24:45.416Z,52.00
2022-08-11T19:27:37.208Z,52.40
2022-08-11T19:30:28.409Z,52.60
2022-08-11T19:33:59.973Z,52.80
2022-08-11T19:36:31.903Z,53.00
2022-08-11T19:39:22.800Z,53.30
2022-08-11T19:42:15.521Z,53.50
2022-08-11T19:45:06.368Z,53.50
2022-08-11T19:48:20.750Z,53.50
2022-08-11T19:51:07.647Z,53.70
2022-08-11T19:53:59.030Z,54.00
2022-08-11T19:56:51.031Z,54.00
2022-08-11T19:59:44.345Z,54.10
2022-08-11T20:02:35.167Z,54.40
2022-08-11T20:05:26.046Z,54.80
2022-08-11T20:08:18.655Z,54.80
2022-08-11T20:11:10.585Z,54.70
2022-08-11T20:14:02.914Z,54.80
2022-08-11T20:16:53.992Z,55.10
2022-08-11T20:19:55.277Z,55.40
2022-08-11T20:22:49.068Z,55.70
2022-08-11T20:25:42.889Z,55.90
2022-08-11T20:28:36.594Z,56.10
2022-08-11T20:31:28.312Z,56.50
2022-08-11T20:34:20.049Z,56.80
2022-08-11T20:37:12.688Z,57.30
2022-08-11T20:40:04.657Z,57.90
2022-08-11T20:42:56.485Z,58.10
2022-08-11T20:45:55.311Z,58.60
2022-08-11T20:48:50.492Z,58.90
2022-08-11T20:51:40.772Z,59.30
2022-08-11T20:54:38.357Z,59.40
2022-08-11T20:57:58.923Z,59.70
2022-08-11T21:00:47.526Z,60.10
2022-08-11T21:03:44.827Z,60.90
2022-08-11T21:06:45.615Z,61.50
2022-08-11T21:10:00.787Z,62.40
2022-08-11T21:12:50.823Z,63.10
2022-08-11T21:16:02.927Z,63.70
2022-08-11T21:18:54.984Z,63.90
2022-08-11T21:21:49.101Z,64.30
2022-08-11T21:24:42.891Z,64.60
2022-08-11T21:27:40.083Z,65.10
2022-08-11T21:30:30.911Z,65.90
2022-08-11T21:33:21.525Z,65.90
2022-08-11T21:36:12.336Z,65.60
2022-08-11T21:39:04.956Z,65.80
2022-08-11T21:41:57.216Z,66.10
2022-08-11T21:44:48.044Z,65.90
2022-08-11T21:47:43.551Z,65.10
2022-08-11T21:50:34.470Z,65.50
2022-08-11T21:53:25.363Z,66.00
2022-08-11T21:56:17.365Z,65.90
2022-08-11T21:59:09.938Z,65.80
2022-08-11T22:02:01.166Z,65.90
2022-08-11T22:04:52.642Z,65.90
2022-08-11T22:07:43.773Z,66.00
2022-08-11T22:10:42.284Z,65.90
2022-08-11T22:13:33.724Z,66.10
2022-08-11T22:16:24.498Z,66.00
2022-08-11T22:19:19.961Z,66.50
2022-08-11T22:22:10.673Z,66.80
2022-08-11T22:25:03.061Z,67.30
2022-08-11T22:28:06.791Z,68.00
2022-08-11T22:30:57.423Z,68.70
2022-08-11T22:34:02.187Z,68.90
2022-08-11T22:36:54.616Z,68.70
2022-08-11T22:40:01.750Z,68.80
2022-08-11T22:42:53.645Z,69.00
2022-08-11T22:45:44.036Z,69.40
2022-08-11T22:48:37.301Z,69.70
2022-08-11T22:51:28.620Z,69.40
2022-08-11T22:54:23.313Z,69.40
2022-08-11T22:57:14.671Z,69.80
2022-08-11T23:00:05.514Z,70.60
2022-08-11T23:02:57.071Z,71.30
2022-08-11T23:05:48.042Z,71.50
2022-08-11T23:08:41.570Z,71.70
2022-08-11T23:12:07.809Z,73.00
2022-08-11T23:14:44.917Z,74.70
2022-08-11T23:17:35.992Z,74.60
2022-08-11T23:20:36.557Z,74.40
2022-08-11T23:23:38.718Z,75.00
2022-08-11T23:26:29.519Z,76.00
2022-08-11T23:29:21.896Z,77.00
2022-08-11T23:32:12.536Z,77.70
2022-08-11T23:35:39.942Z,78.50
2022-08-11T23:38:20.863Z,79.30
2022-08-11T23:41:11.877Z,79.90
2022-08-11T23:44:03.246Z,79.80
2022-08-11T23:46:54.593Z,79.20
2022-08-11T23:49:45.776Z,79.00
2022-08-11T23:52:37.495Z,80.80
2022-08-11T23:55:28.044Z,81.00
2022-08-11T23:58:18.671Z,82.10
